Time;durP1;ratioP1;P1;durP2;ratioP2;P2;SDS_P1;SDS_P2;PMS_P1;PMS_P2;Temp;Humidity;BMP_temperature;BMP_pressure;BME280_temperature;BME280_humidity;BME280_pressure;Samples;Min_cycle;Max_cycle;Signal;HPM_P1;HPM_P2
2022/01/29 00:01:33;;;;;;;16.92;7.78;;;;;;;;;;5167409;28;20046;-91
2022/01/29 00:04:06;;;;;;;21.50;8.43;;;;;;;;;;5130901;28;20056;-91
2022/01/29 00:06:44;;;;;;;15.63;7.70;;;;;;;;;;5132235;28;20073;-91
2022/01/29 00:09:18;;;;;;;16.08;7.95;;;;;;;;;;5154269;28;20042;-91
2022/01/29 00:11:52;;;;;;;13.27;6.57;;;;;;;;;;5154968;28;20046;-91
2022/01/29 00:14:25;;;;;;;16.00;7.60;;;;;;;;;;5177642;28;20053;-91
2022/01/29 00:17:04;;;;;;;16.27;7.55;;;;;;;;;;5159857;28;20050;-91
2022/01/29 00:19:41;;;;;;;17.30;7.85;;;;;;;;;;5149242;28;20057;-91
2022/01/29 00:22:25;;;;;;;17.27;8.98;;;;;;;;;;5149054;28;21118;-92
2022/01/29 00:25:06;;;;;;;13.38;7.68;;;;;;;;;;5159661;28;20053;-91
2022/01/29 00:27:47;;;;;;;17.73;7.97;;;;;;;;;;5148573;28;20054;-90
2022/01/29 00:30:35;;;;;;;18.55;8.48;;;;;;;;;;5165284;28;20053;-90
2022/01/29 00:33:14;;;;;;;19.35;8.30;;;;;;;;;;5155803;28;20053;-92
2022/01/29 00:35:48;;;;;;;15.25;7.90;;;;;;;;;;5155810;28;20047;-92
2022/01/29 00:38:21;;;;;;;13.23;7.97;;;;;;;;;;5168539;28;20054;-91
2022/01/29 00:40:54;;;;;;;14.80;7.65;;;;;;;;;;5153315;28;20506;-90
2022/01/29 00:43:27;;;;;;;14.75;7.90;;;;;;;;;;5159533;28;20057;-91
2022/01/29 00:46:03;;;;;;;19.55;8.90;;;;;;;;;;5169352;28;20411;-92
2022/01/29 00:48:36;;;;;;;16.35;8.52;;;;;;;;;;5162481;28;20050;-91
2022/01/29 00:51:09;;;;;;;18.15;8.02;;;;;;;;;;5183489;28;20053;-91
2022/01/29 00:53:42;;;;;;;18.75;7.75;;;;;;;;;;5159155;28;20411;-91
2022/01/29 00:56:15;;;;;;;19.42;8.35;;;;;;;;;;5157793;28;20065;-92
2022/01/29 00:58:49;;;;;;;14.55;7.75;;;;;;;;;;5165711;28;21180;-92
2022/01/29 01:01:24;;;;;;;17.98;8.05;;;;;;;;;;5158779;28;20050;-92
2022/01/29 01:03:58;;;;;;;15.13;7.22;;;;;;;;;;5123631;28;20073;-92
2022/01/29 01:06:43;;;;;;;16.02;7.68;;;;;;;;;;5148916;28;20054;-92
2022/01/29 01:09:16;;;;;;;16.98;7.63;;;;;;;;;;5149463;28;20054;-91
2022/01/29 01:11:49;;;;;;;19.40;7.95;;;;;;;;;;5168677;28;20057;-91
2022/01/29 01:14:24;;;;;;;15.82;8.18;;;;;;;;;;5128456;28;20050;-92
2022/01/29 01:16:57;;;;;;;14.57;7.60;;;;;;;;;;5143653;28;20046;-91
2022/01/29 01:19:30;;;;;;;16.63;7.43;;;;;;;;;;5123134;28;20056;-92
2022/01/29 01:22:03;;;;;;;14.00;7.38;;;;;;;;;;5153170;28;20505;-91
2022/01/29 01:24:36;;;;;;;14.20;8.40;;;;;;;;;;5163456;28;20046;-91
2022/01/29 01:27:10;;;;;;;15.23;7.97;;;;;;;;;;5145659;28;20054;-91
2022/01/29 01:29:43;;;;;;;16.45;7.93;;;2.70;99.90;;;;;;5153010;28;20697;-91
2022/01/29 01:32:16;;;;;;;16.98;8.30;;;;;;;;;;5131451;28;20050;-91
2022/01/29 01:34:53;;;;;;;18.48;7.78;;;;;;;;;;5157245;28;20046;-93
2022/01/29 01:37:48;;;;;;;14.27;7.68;;;;;;;;;;5160966;28;20043;-92
2022/01/29 01:40:23;;;;;;;16.92;7.55;;;;;;;;;;5162801;28;20046;-92
2022/01/29 01:43:00;;;;;;;15.52;7.90;;;;;;;;;;5150097;28;20050;-91
2022/01/29 01:45:36;;;;;;;20.27;7.88;;;;;;;;;;5151052;28;20054;-90
2022/01/29 01:48:09;;;;;;;14.35;8.23;;;;;;;;;;5156399;28;20062;-90
2022/01/29 01:50:43;;;;;;;16.17;7.75;;;;;;;;;;5165930;28;20092;-91
2022/01/29 01:53:16;;;;;;;14.15;8.15;;;;;;;;;;5153175;28;20054;-90
2022/01/29 01:55:49;;;;;;;15.98;7.30;;;;;;;;;;5155559;28;20494;-91
2022/01/29 01:58:22;;;;;;;19.70;9.10;;;;;;;;;;5153062;28;20056;-91
2022/01/29 02:00:56;;;;;;;16.38;8.25;;;;;;;;;;5173388;28;20066;-91
2022/01/29 02:03:29;;;;;;;19.20;8.50;;;;;;;;;;5155792;28;20054;-91
2022/01/29 02:06:02;;;;;;;21.27;8.70;;;;;;;;;;5152677;28;20058;-91
2022/01/29 02:08:35;;;;;;;16.48;9.02;;;;;;;;;;5155138;28;20498;-91
2022/01/29 02:11:09;;;;;;;18.70;9.43;;;;;;;;;;5154830;28;20053;-91
2022/01/29 02:13:42;;;;;;;16.23;8.32;;;;;;;;;;5147382;28;20046;-92
2022/01/29 02:16:15;;;;;;;18.38;8.23;;;;;;;;;;5161219;28;20407;-92
2022/01/29 02:18:51;;;;;;;16.00;8.30;;;;;;;;;;5155614;28;20061;-91
2022/01/29 02:21:28;;;;;;;16.20;8.40;;;2.50;99.90;;;;;;5155772;28;20494;-91
2022/01/29 02:24:01;;;;;;;18.58;8.55;;;;;;;;;;5164775;28;20061;-91
2022/01/29 02:26:34;;;;;;;17.65;8.38;;;;;;;;;;5147780;28;20058;-91
2022/01/29 02:29:07;;;;;;;19.40;9.00;;;;;;;;;;5161211;28;20062;-92
2022/01/29 02:31:57;;;;;;;18.00;9.30;;;2.60;99.90;;;;;;5133427;28;20058;-91
2022/01/29 02:34:31;;;;;;;17.15;9.13;;;;;;;;;;5156383;28;20636;-91
2022/01/29 02:37:03;;;;;;;15.07;8.70;;;;;;;;;;5153243;28;20426;-91
2022/01/29 02:39:36;;;;;;;19.60;8.40;;;;;;;;;;5158052;28;20038;-91
2022/01/29 02:42:09;;;;;;;19.23;8.43;;;;;;;;;;5132979;28;20332;-91
2022/01/29 02:44:42;;;;;;;20.80;8.57;;;;;;;;;;5150858;28;20050;-91
2022/01/29 02:47:27;;;;;;;18.95;8.65;;;;;;;;;;5128704;28;20057;-91
2022/01/29 02:50:00;;;;;;;18.85;8.43;;;;;;;;;;5171665;28;20245;-90
2022/01/29 02:52:33;;;;;;;15.93;8.13;;;;;;;;;;5160585;28;20070;-90
2022/01/29 02:55:07;;;;;;;17.20;7.60;;;;;;;;;;5137900;28;20054;-91
2022/01/29 02:57:39;;;;;;;19.70;9.32;;;;;;;;;;5144183;28;20042;-91
2022/01/29 03:00:13;;;;;;;21.00;9.03;;;;;;;;;;5131699;28;20054;-91
2022/01/29 03:02:46;;;;;;;25.50;10.98;;;;;;;;;;5156869;28;21176;-92
2022/01/29 03:05:19;;;;;;;34.65;15.27;;;;;;;;;;5156246;28;20050;-91
2022/01/29 03:07:52;;;;;;;19.67;9.70;;;;;;;;;;5153910;28;20050;-90
2022/01/29 03:10:25;;;;;;;15.93;8.18;;;;;;;;;;5148201;28;20471;-91
2022/01/29 03:12:58;;;;;;;13.77;8.23;;;;;;;;;;5143661;28;20767;-91
2022/01/29 03:15:31;;;;;;;14.57;7.88;;;;;;;;;;5169654;28;20050;-90
2022/01/29 03:18:04;;;;;;;15.43;8.57;;;;;;;;;;5147365;28;20049;-92
2022/01/29 03:20:38;;;;;;;11.77;7.07;;;;;;;;;;5154970;28;20046;-90
2022/01/29 03:23:13;;;;;;;15.50;7.80;;;2.30;99.90;;;;;;5148007;28;20054;-91
2022/01/29 03:25:47;;;;;;;19.65;8.35;;;;;;;;;;5164756;28;20901;-91
2022/01/29 03:28:27;;;;;;;23.10;9.85;;;2.20;99.90;;;;;;5162477;28;20062;-91
2022/01/29 03:31:00;;;;;;;;;;;2.20;99.90;;;;;;5155084;28;20054;-90
2022/01/29 03:33:35;;;;;;;18.08;8.73;;;;;;;;;;5150100;28;19929;-91
2022/01/29 03:36:08;;;;;;;16.02;8.30;;;;;;;;;;5164105;28;20050;-91
2022/01/29 03:38:45;;;;;;;16.40;8.20;;;;;;;;;;5149101;28;20995;-91
2022/01/29 03:41:18;;;;;;;16.48;8.13;;;;;;;;;;5152160;28;20052;-92
2022/01/29 03:43:55;;;;;;;14.52;8.10;;;;;;;;;;5148261;28;20052;-91
2022/01/29 03:46:32;;;;;;;14.75;8.20;;;;;;;;;;5161885;28;20499;-91
2022/01/29 03:49:05;;;;;;;15.18;8.32;;;;;;;;;;5152172;28;20054;-91
2022/01/29 03:51:39;;;;;;;17.20;9.77;;;;;;;;;;5158199;28;20072;-92
2022/01/29 03:54:13;;;;;;;14.68;6.93;;;;;;;;;;5161929;28;20057;-92
2022/01/29 03:56:51;;;;;;;17.88;9.15;;;;;;;;;;5144626;28;20046;-91
2022/01/29 03:59:24;;;;;;;17.27;9.00;;;;;;;;;;5152881;28;20045;-91
2022/01/29 04:02:00;;;;;;;18.73;8.82;;;1.80;99.90;;;;;;5150732;28;20129;-91
2022/01/29 04:04:39;;;;;;;19.60;8.50;;;;;;;;;;5151450;28;20051;-92
2022/01/29 04:07:13;;;;;;;14.35;8.07;;;;;;;;;;5124807;28;20046;-92
2022/01/29 04:09:53;;;;;;;16.35;8.32;;;;;;;;;;5159323;28;21823;-91
2022/01/29 04:12:41;;;;;;;21.40;9.05;;;;;;;;;;5157322;28;20525;-91
2022/01/29 04:15:15;;;;;;;15.23;8.65;;;;;;;;;;5145830;28;20134;-91
2022/01/29 04:17:47;;;;;;;15.52;9.18;;;;;;;;;;5160930;28;20053;-91
2022/01/29 04:20:21;;;;;;;15.80;8.77;;;;;;;;;;5159236;28;20046;-91
2022/01/29 04:23:00;;;;;;;16.83;8.05;;;;;;;;;;5155481;28;20054;-92
2022/01/29 04:25:42;;;;;;;15.43;8.15;;;;;;;;;;5149102;28;20054;-91
2022/01/29 04:28:16;;;;;;;16.73;9.15;;;;;;;;;;5132617;28;20058;-92
2022/01/29 04:30:58;;;;;;;28.33;10.15;;;;;;;;;;5155935;28;20054;-91
2022/01/29 04:33:36;;;;;;;18.40;9.88;;;;;;;;;;5157582;28;20054;-94
2022/01/29 04:36:10;;;;;;;20.55;10.10;;;;;;;;;;5160973;28;21048;-91
2022/01/29 04:39:30;;;;;;;21.75;10.10;;;;;;;;;;5175719;28;20056;-92
2022/01/29 04:42:29;;;;;;;;;;;;;;;;;;;;;
2022/01/29 04:45:44;;;;;;;24.90;10.32;;;;;;;;;;5144913;28;20061;-92
2022/01/29 04:48:24;;;;;;;21.02;10.00;;;;;;;;;;5161817;28;20529;-91
2022/01/29 04:51:14;;;;;;;16.20;10.90;;;;;;;;;;5167378;28;20050;-92
2022/01/29 04:54:12;;;;;;;21.33;9.65;;;;;;;;;;5148838;28;20062;-92
2022/01/29 04:57:15;;;;;;;21.13;9.57;;;;;;;;;;5143919;28;20062;-92
2022/01/29 05:00:06;;;;;;;;;;;;;;;;;;;;;
2022/01/29 05:03:15;;;;;;;22.85;10.02;;;;;;;;;;5145857;28;20649;-91
2022/01/29 05:06:12;;;;;;;23.23;9.50;;;;;;;;;;5145322;28;20049;-92
2022/01/29 05:09:09;;;;;;;18.73;9.82;;;;;;;;;;5168024;28;20053;-91
2022/01/29 05:11:54;;;;;;;13.98;8.65;;;;;;;;;;5153308;28;20053;-92
2022/01/29 05:27:52;;;;;;;28.60;13.20;;;;;;;;;;5158749;28;20056;-35
2022/01/29 05:30:24;;;;;;;18.57;10.97;;;;;;;;;;5198261;28;20056;-36
2022/01/29 05:32:57;;;;;;;17.90;9.30;;;;;;;;;;5209919;23;20060;-46
2022/01/29 05:35:30;;;;;;;16.20;8.45;;;;;;;;;;5190161;28;20094;-47
2022/01/29 05:38:02;;;;;;;18.10;9.52;;;;;;;;;;5196240;28;20049;-44
2022/01/29 05:40:35;;;;;;;17.10;8.98;;;;;;;;;;5196149;28;20041;-43
2022/01/29 05:43:08;;;;;;;18.77;9.10;;;;;;;;;;5182845;28;20615;-46
2022/01/29 05:45:41;;;;;;;14.87;8.67;;;;;;;;;;5181562;28;20054;-42
2022/01/29 05:48:13;;;;;;;14.55;8.25;;;;;;;;;;5182635;28;20308;-43
2022/01/29 05:50:46;;;;;;;17.33;9.77;;;;;;;;;;5177930;28;20066;-44
2022/01/29 05:53:19;;;;;;;18.73;10.53;;;;;;;;;;5161799;28;20076;-43
2022/01/29 05:55:52;;;;;;;14.93;10.37;;;;;;;;;;5183066;28;20390;-43
2022/01/29 05:58:25;;;;;;;21.02;9.95;;;;;;;;;;5174291;28;20057;-48
2022/01/29 06:00:57;;;;;;;18.63;10.47;;;;;;;;;;5181495;28;20045;-44
2022/01/29 06:03:30;;;;;;;16.67;9.10;;;;;;;;;;5173915;28;20288;-43
2022/01/29 06:06:03;;;;;;;21.50;11.05;;;;;;;;;;5177629;28;20045;-43
2022/01/29 06:08:36;;;;;;;18.67;9.23;;;;;;;;;;5177403;28;20056;-41
2022/01/29 06:11:08;;;;;;;22.15;9.75;;;;;;;;;;5180274;28;20521;-45
2022/01/29 06:13:42;;;;;;;19.02;10.00;;;;;;;;;;5174480;28;20300;-45
2022/01/29 06:16:14;;;;;;;20.23;9.82;;;;;;;;;;5155476;28;20037;-44
2022/01/29 06:18:47;;;;;;;18.67;8.70;;;;;;;;;;5175407;28;20042;-42
2022/01/29 06:21:20;;;;;;;20.55;9.20;;;;;;;;;;5182393;28;20060;-43
2022/01/29 06:23:53;;;;;;;19.25;10.25;;;;;;;;;;5184279;28;20045;-41
2022/01/29 06:26:26;;;;;;;17.53;9.80;;;;;;;;;;5179193;28;20438;-40
2022/01/29 06:28:59;;;;;;;21.95;10.60;;;;;;;;;;5171284;28;20045;-50
2022/01/29 06:31:32;;;;;;;17.58;8.75;;;;;;;;;;5188412;28;20402;-44
2022/01/29 06:34:05;;;;;;;22.38;9.73;;;;;;;;;;5183461;28;20046;-44
2022/01/29 06:36:37;;;;;;;20.02;9.32;;;;;;;;;;5184949;28;20052;-46
2022/01/29 06:39:10;;;;;;;21.05;9.82;;;;;;;;;;5163838;28;20070;-44
2022/01/29 06:41:43;;;;;;;18.45;10.05;;;;;;;;;;5180791;28;20045;-44
2022/01/29 06:44:15;;;;;;;18.65;10.10;;;;;;;;;;5178020;28;20052;-46
2022/01/29 06:46:48;;;;;;;22.63;10.35;;;;;;;;;;5179258;28;20483;-40
2022/01/29 06:49:21;;;;;;;19.93;10.70;;;;;;;;;;5177825;28;20050;-47
2022/01/29 06:51:54;;;;;;;18.15;10.10;;;;;;;;;;5156316;28;20049;-42
2022/01/29 06:54:26;;;;;;;17.02;9.18;;;;;;;;;;5175778;28;20061;-48
2022/01/29 06:56:59;;;;;;;15.52;9.15;;;;;;;;;;5175718;28;20038;-45
2022/01/29 06:59:32;;;;;;;20.10;9.37;;;;;;;;;;5183709;28;20041;-45
2022/01/29 07:02:05;;;;;;;15.88;8.85;;;;;;;;;;5181798;28;20056;-49
2022/01/29 07:04:38;;;;;;;22.00;9.83;;;;;;;;;;5167260;28;20041;-44
2022/01/29 07:07:10;;;;;;;20.90;11.63;;;;;;;;;;5170219;28;20305;-44
2022/01/29 07:09:43;;;;;;;19.10;9.55;;;;;;;;;;5175097;28;20049;-46
2022/01/29 07:12:16;;;;;;;17.25;8.90;;;;;;;;;;5139530;28;20045;-41
2022/01/29 07:14:49;;;;;;;18.83;10.48;;;;;;;;;;5159786;28;20057;-43
2022/01/29 07:17:24;;;;;;;18.85;10.07;;;;;;;;;;5163979;28;20045;-43
2022/01/29 07:19:57;;;;;;;19.60;9.95;;;;;;;;;;5175972;28;20495;-47
2022/01/29 07:22:29;;;;;;;17.08;9.15;;;;;;;;;;5170325;28;20045;-46
2022/01/29 07:25:02;;;;;;;20.83;10.85;;;;;;;;;;5156446;28;20521;-46
2022/01/29 07:27:35;;;;;;;18.65;10.68;;;;;;;;;;5162586;28;20064;-45
2022/01/29 07:30:08;;;;;;;15.57;9.20;;;;;;;;;;5175080;28;20493;-45
2022/01/29 07:32:45;;;;;;;17.03;9.20;;;2.10;99.90;;;;;;5167120;28;20056;-48
2022/01/29 07:35:17;;;;;;;13.93;7.03;;;;;;;;;;5143400;28;21542;-45
2022/01/29 07:37:54;;;;;;;11.57;7.35;;;;;;;;;;5169946;28;20045;-49
2022/01/29 07:40:27;;;;;;;15.50;7.43;;;;;;;;;;5169500;28;20049;-48
2022/01/29 07:43:00;;;;;;;12.40;6.00;;;;;;;;;;5161796;28;20053;-45
2022/01/29 07:45:32;;;;;;;13.07;6.20;;;;;;;;;;5123806;28;20068;-47
2022/01/29 07:48:05;;;;;;;14.17;6.00;;;;;;;;;;5180004;28;20050;-47
2022/01/29 07:50:38;;;;;;;11.70;6.20;;;;;;;;;;5162866;28;20648;-45
2022/01/29 07:53:11;;;;;;;10.83;5.70;;;;;;;;;;5171849;28;20049;-45
2022/01/29 07:55:44;;;;;;;13.37;5.60;;;;;;;;;;5172181;28;20327;-42
2022/01/29 07:58:17;;;;;;;12.48;6.60;;;;;;;;;;5152646;28;20050;-47
2022/01/29 08:00:50;;;;;;;11.77;6.37;;;;;;;;;;5135248;28;20570;-47
2022/01/29 08:03:23;;;;;;;15.20;8.23;;;;;;;;;;5152007;28;20045;-46
2022/01/29 08:05:55;;;;;;;11.15;7.30;;;;;;;;;;5170014;28;20482;-43
2022/01/29 08:08:28;;;;;;;12.87;7.87;;;;;;;;;;5178290;28;20049;-51
2022/01/29 08:11:01;;;;;;;13.97;8.27;;;;;;;;;;5169400;28;20056;-45
2022/01/29 08:13:34;;;;;;;10.90;7.25;;;;;;;;;;5170566;28;20052;-46
2022/01/29 08:16:07;;;;;;;12.40;6.28;;;;;;;;;;5174321;28;20057;-45
2022/01/29 08:18:42;;;;;;;10.53;6.17;;;;;;;;;;5161321;28;20046;-44
2022/01/29 08:21:16;;;;;;;11.02;6.00;;;2.80;99.90;;;;;;5159102;28;20049;-45
2022/01/29 08:23:49;;;;;;;8.80;5.45;;;;;;;;;;5148469;28;20045;-45
2022/01/29 08:26:21;;;;;;;9.48;5.45;;;;;;;;;;5155170;28;20049;-48
2022/01/29 08:28:54;;;;;;;12.23;6.03;;;;;;;;;;5159083;28;20044;-48
2022/01/29 08:31:27;;;;;;;13.90;6.63;;;;;;;;;;5163832;28;20056;-45
2022/01/29 08:34:01;;;;;;;20.30;8.77;;;;;;;;;;5169547;28;20609;-46
2022/01/29 08:36:34;;;;;;;17.25;9.57;;;;;;;;;;5167508;28;21141;-47
2022/01/29 08:39:07;;;;;;;20.33;10.50;;;;;;;;;;5162822;28;20053;-48
2022/01/29 08:41:40;;;;;;;17.15;9.10;;;;;;;;;;5123664;28;20049;-46
2022/01/29 08:44:13;;;;;;;16.33;8.38;;;;;;;;;;5169239;28;20049;-44
2022/01/29 08:46:46;;;;;;;19.40;8.00;;;;;;;;;;5167917;28;20049;-44
2022/01/29 08:49:19;;;;;;;19.07;10.50;;;;;;;;;;5177972;28;20184;-42
2022/01/29 08:51:52;;;;;;;27.02;13.52;;;;;;;;;;5177931;28;20582;-43
2022/01/29 08:54:24;;;;;;;28.90;15.80;;;;;;;;;;5175681;28;20052;-45
2022/01/29 08:56:57;;;;;;;18.33;10.47;;;;;;;;;;5159428;28;20054;-45
2022/01/29 08:59:30;;;;;;;16.73;9.30;;;;;;;;;;5160554;28;20061;-47
2022/01/29 09:02:03;;;;;;;20.17;9.25;;;;;;;;;;5182074;28;20422;-46
2022/01/29 09:04:36;;;;;;;24.35;11.15;;;;;;;;;;5176123;28;20414;-44
2022/01/29 09:07:09;;;;;;;28.60;11.65;;;;;;;;;;5177231;28;20053;-47
2022/01/29 09:09:44;;;;;;;45.65;22.05;;;;;;;;;;5159143;28;20049;-51
2022/01/29 09:12:17;;;;;;;40.88;18.52;;;;;;;;;;5176274;28;20060;-44
2022/01/29 09:14:50;;;;;;;16.85;8.63;;;;;;;;;;5181320;28;20053;-48
2022/01/29 09:17:23;;;;;;;10.32;7.20;;;;;;;;;;5181978;28;20041;-47
2022/01/29 09:19:55;;;;;;;10.73;6.32;;;;;;;;;;5182004;28;20049;-43
2022/01/29 09:22:28;;;;;;;8.88;5.43;;;;;;;;;;5157931;28;20042;-44
2022/01/29 09:25:01;;;;;;;9.18;5.68;;;;;;;;;;5171840;28;20745;-42
2022/01/29 09:27:34;;;;;;;9.38;5.03;;;3.40;99.90;;;;;;5181422;28;20052;-43
2022/01/29 09:30:07;;;;;;;10.40;4.73;;;3.40;99.90;;;;;;5182506;28;20060;-44
2022/01/29 09:32:40;;;;;;;9.05;4.68;;;;;;;;;;4482055;28;10000658;-45
2022/01/29 09:35:13;;;;;;;7.05;4.00;;;;;;;;;;5139398;28;20057;-42
2022/01/29 09:37:46;;;;;;;8.25;3.30;;;;;;;;;;5161957;28;20045;-46
2022/01/29 09:40:20;;;;;;;5.50;3.40;;;;;;;;;;5158059;28;20517;-45
2022/01/29 09:42:53;;;;;;;4.53;2.95;;;;;;;;;;5153648;28;20045;-46
2022/01/29 09:45:26;;;;;;;6.93;3.47;;;3.60;99.90;;;;;;5166977;28;20380;-44
2022/01/29 09:48:03;;;;;;;4.53;2.83;;;;;;;;;;5168224;28;20485;-48
2022/01/29 09:50:37;;;;;;;3.88;2.28;;;3.70;97.30;;;;;;5163750;28;21860;-50
2022/01/29 09:53:10;;;;;;;3.88;2.33;;;;;;;;;;5162653;28;20478;-45
2022/01/29 09:55:43;;;;;;;2.47;1.93;;;;;;;;;;5162382;28;20334;-48
2022/01/29 09:58:16;;;;;;;2.50;1.60;;;;;;;;;;5175003;28;20060;-45
2022/01/29 10:00:49;;;;;;;5.32;1.75;;;;;;;;;;5172838;28;20384;-46
2022/01/29 10:03:22;;;;;;;2.87;1.77;;;;;;;;;;5180990;28;20045;-44
2022/01/29 10:05:57;;;;;;;3.05;1.65;;;3.90;92.70;;;;;;5175746;28;20513;-45
2022/01/29 10:08:44;;;;;;;2.30;1.50;;;4.00;91.60;;;;;;5165934;28;20057;-47
2022/01/29 10:11:23;;;;;;;2.60;1.73;;;4.10;91.80;;;;;;5178132;28;21108;-48
2022/01/29 10:14:01;;;;;;;2.08;1.30;;;4.00;91.10;;;;;;5176010;28;20491;-42
2022/01/29 10:16:41;;;;;;;4.30;2.38;;;4.00;91.20;;;;;;5173362;28;20377;-45
2022/01/29 10:19:14;;;;;;;2.45;1.45;;;;;;;;;;5155748;28;20419;-45
2022/01/29 10:21:47;;;;;;;1.67;1.20;;;4.00;90.00;;;;;;5156075;28;20275;-38
2022/01/29 10:24:21;;;;;;;1.63;1.30;;;;;;;;;;5176894;28;20450;-39
2022/01/29 10:26:55;;;;;;;2.00;1.55;;;;;;;;;;5183875;28;20383;-39
2022/01/29 10:29:27;;;;;;;1.88;1.30;;;;;;;;;;5180701;28;20050;-39
2022/01/29 10:32:02;;;;;;;1.73;1.40;;;;;;;;;;5181161;28;20525;-40
2022/01/29 10:34:36;;;;;;;1.13;0.95;;;3.20;87.80;;;;;;5147960;28;20053;-38
2022/01/29 10:37:18;;;;;;;;;;;4.20;88.80;;;;;;5142681;28;20993;-41
2022/01/29 10:39:56;;;;;;;3.08;1.27;;;4.20;88.70;;;;;;5179672;28;19929;-39
2022/01/29 10:42:36;;;;;;;1.77;0.90;;;4.20;87.00;;;;;;5160802;28;20417;-39
2022/01/29 10:45:10;;;;;;;1.67;1.30;;;;;;;;;;5149909;28;20679;-38
2022/01/29 10:47:56;;;;;;;2.70;1.38;;;4.30;86.30;;;;;;5157903;28;20100;-38
2022/01/29 10:50:30;;;;;;;2.65;1.42;;;;;;;;;;5156923;28;21059;-39
2022/01/29 10:53:24;;;;;;;4.72;1.67;;;4.30;88.50;;;;;;5157458;28;20070;-39
2022/01/29 10:56:00;;;;;;;1.40;1.25;;;4.30;87.80;;;;;;5151429;28;20046;-38
2022/01/29 10:58:43;;;;;;;1.83;1.00;;;4.30;86.70;;;;;;5149054;28;20053;-38
2022/01/29 11:01:15;;;;;;;1.65;1.38;;;;;;;;;;5153968;28;20045;-38
2022/01/29 11:03:52;;;;;;;1.50;1.20;;;;;;;;;;5155763;28;20125;-41
2022/01/29 11:06:33;;;;;;;1.48;1.17;;;;;;;;;;5152849;28;20042;-39
2022/01/29 11:09:06;;;;;;;1.50;1.33;;;;;;;;;;5158457;28;20312;-40
2022/01/29 11:11:45;;;;;;;1.25;1.13;;;4.50;84.60;;;;;;5153981;28;20057;-37
2022/01/29 11:14:19;;;;;;;1.55;1.20;;;4.60;82.80;;;;;;5153260;28;20333;-39
2022/01/29 11:16:53;;;;;;;2.08;1.60;;;4.60;83.10;;;;;;5151594;28;20373;-38
2022/01/29 11:19:27;;;;;;;1.63;1.23;;;;;;;;;;5144258;28;20120;-38
2022/01/29 11:22:03;;;;;;;1.95;1.00;;;4.70;81.30;;;;;;5148916;28;20499;-38
2022/01/29 11:24:42;;;;;;;2.03;1.27;;;4.70;82.50;;;;;;5155233;28;20586;-37
2022/01/29 11:27:27;;;;;;;1.33;1.23;;;4.70;82.60;;;;;;5132738;28;20875;-39
2022/01/29 11:30:00;;;;;;;1.50;1.13;;;;;;;;;;5124502;28;20041;-38
2022/01/29 11:32:35;;;;;;;1.38;1.05;;;4.80;82.30;;;;;;5171401;23;20067;-77
2022/01/29 11:35:30;;;;;;;3.72;1.10;;;4.90;80.60;;;;;;5169405;28;20068;-77
2022/01/29 11:38:06;;;;;;;1.52;1.13;;;;;;;;;;5185575;28;20588;-76
2022/01/29 11:40:44;;;;;;;1.20;1.10;;;5.20;80.30;;;;;;5142727;28;20045;-77
2022/01/29 11:43:19;;;;;;;1.15;1.00;;;4.90;78.80;;;;;;5173254;28;20044;-76
2022/01/29 11:45:56;;;;;;;3.65;1.20;;;5.00;78.60;;;;;;5153572;28;20045;-77
2022/01/29 11:48:31;;;;;;;1.35;1.10;;;;;;;;;;5170364;28;20320;-77
2022/01/29 11:51:09;;;;;;;1.52;1.10;;;5.20;79.10;;;;;;5148605;28;20567;-77
2022/01/29 11:53:44;;;;;;;1.75;1.10;;;5.20;79.40;;;;;;5177362;28;20173;-77
2022/01/29 11:56:38;;;;;;;1.70;1.17;;;4.90;78.80;;;;;;5178214;28;20045;-77
2022/01/29 11:59:19;;;;;;;1.70;1.10;;;5.30;76.40;;;;;;5186841;28;20037;-77
2022/01/29 12:02:08;;;;;;;2.25;1.33;;;5.40;77.30;;;;;;5168193;28;20121;-76
2022/01/29 12:04:55;;;;;;;2.15;1.33;;;5.50;77.40;;;;;;5188398;28;20060;-77
2022/01/29 12:07:35;;;;;;;1.52;1.23;;;;;;;;;;5195271;28;20037;-77
2022/01/29 12:10:09;;;;;;;1.90;1.23;;;;;;;;;;5182574;28;20048;-75
2022/01/29 12:12:43;;;;;;;1.50;1.10;;;5.60;75.80;;;;;;5168836;28;21234;-75
2022/01/29 12:15:16;;;;;;;1.38;1.00;;;;;;;;;;5173322;28;20048;-74
2022/01/29 12:17:56;;;;;;;1.73;1.08;;;5.50;75.30;;;;;;5164529;28;20068;-75
2022/01/29 12:20:29;;;;;;;1.52;1.33;;;;;;;;;;4817143;28;9999706;-74
2022/01/29 12:23:06;;;;;;;1.57;0.90;;;5.70;72.30;;;;;;4117823;28;10000372;-76
2022/01/29 12:25:39;;;;;;;2.83;1.50;;;;;;;;;;5162645;28;20040;-76
2022/01/29 12:28:11;;;;;;;1.83;1.35;;;;;;;;;;5155202;28;20566;-77
2022/01/29 12:30:45;;;;;;;1.83;1.30;;;;;;;;;;5159578;28;20044;-76
2022/01/29 12:33:21;;;;;;;;;;;5.80;71.60;;;;;;5169357;28;20663;-76
2022/01/29 12:35:54;;;;;;;2.67;1.40;;;;;;;;;;5155119;28;19929;-74
2022/01/29 12:38:41;;;;;;;2.53;1.13;;;6.10;71.40;;;;;;5184591;28;20053;-74
2022/01/29 12:41:33;;;;;;;2.50;1.40;;;6.20;72.30;;;;;;5160675;28;20049;-77
2022/01/29 12:44:08;;;;;;;1.83;1.30;;;;;;;;;;5156975;28;20240;-74
2022/01/29 12:46:45;;;;;;;1.50;1.25;;;6.20;72.60;;;;;;5171388;28;20041;-77
2022/01/29 12:49:18;;;;;;;2.28;1.33;;;;;;;;;;5182259;28;20064;-76
2022/01/29 12:51:51;;;;;;;1.58;1.45;;;;;;;;;;5161628;28;20154;-76
2022/01/29 12:54:26;;;;;;;1.98;1.77;;;6.30;70.80;;;;;;5153522;28;20056;-75
2022/01/29 12:57:00;;;;;;;1.65;1.10;;;;;;;;;;5168677;28;20080;-76
2022/01/29 12:59:35;;;;;;;2.70;1.60;;;6.40;69.80;;;;;;5173213;28;20060;-75
2022/01/29 13:02:08;;;;;;;4.03;1.25;;;;;;;;;;5193964;28;20093;-77
2022/01/29 13:04:46;;;;;;;2.47;1.55;;;;;;;;;;5186471;28;20044;-76
2022/01/29 13:07:19;;;;;;;4.05;1.50;;;;;;;;;;5191156;28;21054;-76
2022/01/29 13:09:55;;;;;;;1.95;1.33;;;6.60;70.20;;;;;;5186204;28;20440;-77
2022/01/29 13:12:28;;;;;;;2.42;1.20;;;;;;;;;;5181312;28;20062;-77
2022/01/29 13:15:01;;;;;;;2.20;1.47;;;;;;;;;;5186525;28;20571;-77
2022/01/29 13:17:34;;;;;;;2.22;1.60;;;;;;;;;;5189477;28;20410;-76
2022/01/29 13:20:07;;;;;;;1.77;1.27;;;;;;;;;;5181969;28;20057;-78
2022/01/29 13:22:42;;;;;;;2.00;1.40;;;6.80;70.40;;;;;;5169296;28;20049;-77
2022/01/29 13:25:16;;;;;;;2.92;1.70;;;;;;;;;;5186809;28;20068;-76
2022/01/29 13:27:54;;;;;;;2.30;1.40;;;;;;;;;;5183671;28;20046;-76
2022/01/29 13:30:31;;;;;;;2.92;1.45;;;;;;;;;;5190021;28;20056;-77
2022/01/29 13:33:10;;;;;;;2.88;1.38;;;6.90;68.70;;;;;;5184532;28;20068;-76
2022/01/29 13:35:47;;;;;;;2.15;1.45;;;6.90;69.90;;;;;;5189299;28;20373;-76
2022/01/29 13:38:23;;;;;;;3.25;1.58;;;6.80;69.40;;;;;;5149090;28;21103;-76
2022/01/29 13:41:01;;;;;;;2.33;1.52;;;6.70;69.20;;;;;;5171296;28;20048;-74
2022/01/29 13:43:42;;;;;;;5.32;1.95;;;6.70;68.90;;;;;;5186736;28;20045;-74
2022/01/29 13:46:15;;;;;;;3.70;1.88;;;;;;;;;;5147097;28;20056;-76
2022/01/29 13:48:55;;;;;;;4.05;2.00;;;6.70;68.30;;;;;;5174636;28;20044;-75
2022/01/29 13:51:40;;;;;;;3.42;1.77;;;6.80;69.30;;;;;;5151241;28;20045;-76
2022/01/29 13:54:22;;;;;;;2.83;1.70;;;6.70;70.10;;;;;;5192861;28;20155;-75
2022/01/29 13:57:06;;;;;;;3.45;1.90;;;6.70;69.70;;;;;;5186212;28;20076;-75
2022/01/29 13:59:41;;;;;;;3.22;2.03;;;;;;;;;;5166088;28;20053;-76
2022/01/29 14:02:19;;;;;;;3.88;1.90;;;;;;;;;;5173477;28;20045;-75
2022/01/29 14:05:03;;;;;;;2.63;1.67;;;6.80;68.30;;;;;;5195581;28;20049;-75
2022/01/29 14:07:41;;;;;;;2.10;1.63;;;;;;;;;;5164717;28;20036;-76
2022/01/29 14:10:37;;;;;;;2.60;1.60;;;6.80;67.30;;;;;;5156816;28;20056;-76
2022/01/29 14:13:11;;;;;;;4.68;2.35;;;;;;;;;;5163993;28;20041;-76
2022/01/29 14:15:47;;;;;;;3.88;2.03;;;;;;;;;;5136601;28;20045;-76
2022/01/29 14:18:20;;;;;;;3.58;1.98;;;;;;;;;;5150343;28;20048;-75
2022/01/29 14:20:53;;;;;;;4.95;2.30;;;;;;;;;;5175279;28;20045;-76
2022/01/29 14:23:26;;;;;;;;;;;6.70;68.80;;;;;;5153587;28;20052;-76
2022/01/29 14:26:19;;;;;;;3.38;2.42;;;;;;;;;;5175230;28;19921;-75
2022/01/29 14:28:54;;;;;;;5.03;3.10;;;6.70;68.20;;;;;;5183442;28;20063;-76
2022/01/29 14:31:27;;;;;;;6.22;2.53;;;;;;;;;;5165602;28;20040;-75
2022/01/29 14:34:02;;;;;;;8.37;2.10;;;;;;;;;;5203576;28;20345;-76
2022/01/29 14:36:35;;;;;;;4.40;2.22;;;6.60;69.50;;;;;;5176959;28;20405;-76
2022/01/29 14:39:09;;;;;;;5.28;2.80;;;;;;;;;;5160331;28;20064;-76
2022/01/29 14:41:42;;;;;;;3.43;2.27;;;;;;;;;;5197616;28;20049;-76
2022/01/29 14:44:15;;;;;;;2.88;2.28;;;;;;;;;;5205982;28;20299;-76
2022/01/29 14:46:48;;;;;;;3.72;2.65;;;;;;;;;;5180447;28;20049;-75
2022/01/29 14:49:23;;;;;;;5.15;2.40;;;;;;;;;;5193184;28;20103;-76
2022/01/29 14:51:58;;;;;;;4.43;2.75;;;7.70;73.80;;;;;;5191283;28;20048;-78
2022/01/29 14:54:31;;;;;;;6.10;2.72;;;4.50;70.80;;;;;;5198474;28;20053;-77
2022/01/29 14:57:04;;;;;;;5.53;2.95;;;;;;;;;;5203862;28;20052;-77
2022/01/29 14:59:37;;;;;;;3.95;2.53;;;;;;;;;;5195374;28;20476;-77
2022/01/29 15:02:10;;;;;;;3.93;2.57;;;;;;;;;;5204450;28;20234;-77
2022/01/29 15:04:55;;;;;;;4.65;2.30;;;6.60;72.00;;;;;;5201078;28;20405;-77
2022/01/29 15:07:27;;;;;;;4.78;2.45;;;9.70;75.90;;;;;;5164617;28;20049;-77
2022/01/29 15:10:00;;;;;;;2.53;2.33;;;3.00;73.10;;;;;;5181854;28;20053;-75
2022/01/29 15:12:33;;;;;;;8.57;3.37;;;;;;;;;;5205195;28;20059;-78
2022/01/29 15:15:06;;;;;;;5.30;3.03;;;8.00;77.80;;;;;;5206454;28;20059;-77